Time;durP1;ratioP1;P1;durP2;ratioP2;P2;SDS_P1;SDS_P2;PMS_P1;PMS_P2;Temp;Humidity;BMP_temperature;BMP_pressure;BME280_temperature;BME280_humidity;BME280_pressure;Samples;Min_cycle;Max_cycle;Signal;HPM_P1;HPM_P2
2023/06/07 04:59:53;;;;;;;2.80;2.50;;;;;;;;;;4879937;29;20244;-68
2023/06/07 05:02:20;;;;;;;2.75;2.60;;;;;;;;;;4880619;29;20202;-68
2023/06/07 05:04:47;;;;;;;2.60;2.40;;;;;;;;;;4880528;29;20210;-68
2023/06/07 05:07:14;;;;;;;2.65;2.45;;;;;;;;;;4880425;29;20253;-68
2023/06/07 05:09:41;;;;;;;2.28;2.17;;;;;;;;;;4906687;23;20217;-68
2023/06/07 05:12:09;;;;;;;2.35;2.25;;;;;;;;;;4899350;29;20194;-68
2023/06/07 05:14:36;;;;;;;2.20;1.98;;;;;;;;;;4899240;29;20236;-68
2023/06/07 05:17:05;;;;;;;2.45;2.25;;;;;;;;;;4899214;29;20209;-68
2023/06/07 05:19:32;;;;;;;3.40;2.22;;;;;;;;;;4898994;29;20226;-68
2023/06/07 05:21:59;;;;;;;2.15;2.05;;;;;;;;;;4898961;29;20546;-69
2023/06/07 05:24:26;;;;;;;1.65;1.63;;;;;;;;;;4899030;29;20208;-69
2023/06/07 05:26:53;;;;;;;2.15;2.05;;;;;;;;;;4898878;29;20217;-69
2023/06/07 05:29:21;;;;;;;2.10;2.00;;;;;;;;;;4898585;29;20225;-69
2023/06/07 05:31:48;;;;;;;2.05;1.70;;;;;;;;;;4898881;29;20205;-69
2023/06/07 05:34:17;;;;;;;1.65;1.65;;;;;;;;;;4898564;29;20692;-69
2023/06/07 05:36:44;;;;;;;2.67;1.90;;;;;;;;;;4898838;29;20263;-68
2023/06/07 05:39:11;;;;;;;1.65;1.55;;;;;;;;;;4898548;29;20709;-69
2023/06/07 05:41:38;;;;;;;1.70;1.60;;;;;;;;;;4903409;29;20696;-69
2023/06/07 05:44:05;;;;;;;2.05;1.88;;;;;;;;;;4918201;29;20212;-69
2023/06/07 05:46:32;;;;;;;1.90;1.80;;;;;;;;;;4899740;29;20225;-69
2023/06/07 05:49:00;;;;;;;1.70;1.60;;;;;;;;;;4898302;29;20692;-68
2023/06/07 05:51:28;;;;;;;1.60;1.50;;;;;;;;;;4898510;29;20422;-68
2023/06/07 05:53:55;;;;;;;2.10;2.00;;;;;;;;;;4898558;29;20209;-68
2023/06/07 05:56:23;;;;;;;2.53;2.33;;;;;;;;;;4898780;29;20209;-68
2023/06/07 05:58:50;;;;;;;2.13;1.65;;;;;;;;;;4898567;29;20205;-68
2023/06/07 06:01:17;;;;;;;2.25;2.05;;;;;;;;;;4898860;29;20803;-68
2023/06/07 06:03:44;;;;;;;10.85;3.20;;;;;;;;;;4904381;29;20211;-68
2023/06/07 06:06:15;;;;;;;2.20;1.90;;;;;;;;;;4905080;29;20217;-68
2023/06/07 06:08:44;;;;;;;2.15;2.05;;;;;;;;;;4906547;29;20216;-68
2023/06/07 06:11:11;;;;;;;3.45;1.50;;;;;;;;;;4905580;29;20244;-68
2023/06/07 06:13:38;;;;;;;2.22;1.75;;;;;;;;;;4898659;29;20237;-68
2023/06/07 06:16:06;;;;;;;1.65;1.45;;;;;;;;;;4898649;29;20233;-68
2023/06/07 06:18:33;;;;;;;1.58;1.45;;;;;;;;;;4898473;29;20229;-68
2023/06/07 06:21:00;;;;;;;2.15;1.35;;;;;;;;;;4898389;29;20614;-68
2023/06/07 06:23:27;;;;;;;3.42;1.27;;;;;;;;;;4898352;29;20237;-69
2023/06/07 06:25:56;;;;;;;1.20;1.20;;;;;;;;;;4898213;29;20229;-69
2023/06/07 06:28:23;;;;;;;3.83;1.83;;;;;;;;;;4898350;29;20216;-68
2023/06/07 06:30:50;;;;;;;1.58;1.58;;;;;;;;;;4898352;29;20264;-68
2023/06/07 06:33:17;;;;;;;2.22;1.60;;;;;;;;;;4898357;29;20194;-69
2023/06/07 06:35:44;;;;;;;1.58;1.48;;;;;;;;;;4898417;29;20233;-69
2023/06/07 06:38:11;;;;;;;2.90;1.55;;;;;;;;;;4898296;29;20241;-68
2023/06/07 06:40:38;;;;;;;1.60;1.50;;;;;;;;;;4898136;29;20321;-68
2023/06/07 06:43:07;;;;;;;2.80;1.45;;;;;;;;;;4898160;29;20209;-66
2023/06/07 06:45:34;;;;;;;3.15;1.60;;;;;;;;;;4898090;29;20203;-69
2023/06/07 06:48:01;;;;;;;1.63;1.50;;;;;;;;;;4898140;29;20206;-69
2023/06/07 06:50:29;;;;;;;1.77;1.23;;;;;;;;;;4898116;29;20593;-69
2023/06/07 06:52:56;;;;;;;1.58;1.30;;;;;;;;;;4897119;29;20487;-69
2023/06/07 06:55:23;;;;;;;7.18;1.42;;;36.20;18.70;;;;;;4897831;29;20572;-69
2023/06/07 06:57:50;;;;;;;1.38;1.38;;;36.90;18.90;;;;;;4898133;29;20206;-69
2023/06/07 07:00:19;;;;;;;1.70;1.60;;;37.20;18.90;;;;;;4897971;29;20233;-69
2023/06/07 07:02:45;;;;;;;1.45;1.27;;;37.10;19.00;;;;;;4898121;29;20213;-69
2023/06/07 07:05:13;;;;;;;1.40;1.38;;;36.80;19.20;;;;;;4898031;29;20704;-69
2023/06/07 07:07:39;;;;;;;1.73;1.10;;;37.20;18.70;;;;;;4901371;29;20229;-69
2023/06/07 07:10:07;;;;;;;36.13;14.43;;;37.80;18.40;;;;;;4900930;29;20237;-69
2023/06/07 07:12:34;;;;;;;1.63;1.52;;;37.70;17.80;;;;;;4901402;29;20212;-69
2023/06/07 07:15:01;;;;;;;3.38;1.75;;;37.60;19.30;;;;;;4901041;29;20213;-69
2023/06/07 07:17:30;;;;;;;1.33;1.33;;;37.20;19.30;;;;;;4900960;29;20610;-69
2023/06/07 07:19:57;;;;;;;36.15;20.27;;;36.90;20.20;;;;;;4900878;29;20777;-69
2023/06/07 07:22:24;;;;;;;2.58;2.25;;;36.30;20.80;;;;;;4901216;29;20209;-69
2023/06/07 07:24:50;;;;;;;3.40;1.48;;;36.70;20.50;;;;;;4901151;29;20212;-69
2023/06/07 07:27:21;;;;;;;2.58;1.60;;;37.10;18.80;;;;;;4901050;29;20232;-70
2023/06/07 07:29:47;;;;;;;1.20;1.20;;;36.50;19.90;;;;;;4901065;29;20233;-70
2023/06/07 07:32:14;;;;;;;2.80;1.13;;;36.60;21.10;;;;;;4900795;29;20236;-70
2023/06/07 07:34:42;;;;;;;1.02;0.90;;;37.00;19.70;;;;;;4901002;29;20235;-70
2023/06/07 07:37:09;;;;;;;1.17;1.00;;;37.10;19.80;;;;;;4901004;29;20197;-70
2023/06/07 07:39:36;;;;;;;2.63;2.38;;;37.50;19.40;;;;;;4900526;29;20593;-70
2023/06/07 07:42:05;;;;;;;23.17;14.10;;;37.10;19.80;;;;;;4900564;29;20681;-70
2023/06/07 07:44:32;;;;;;;86.07;76.80;;;36.90;20.80;;;;;;4900806;29;20243;-70
2023/06/07 07:46:59;;;;;;;1.15;1.15;;;37.00;21.30;;;;;;4900699;29;20236;-70
2023/06/07 07:49:26;;;;;;;1.10;1.10;;;36.50;21.10;;;;;;4900304;29;20674;-70
2023/06/07 07:51:54;;;;;;;64.93;56.45;;;36.10;21.60;;;;;;4900706;29;20216;-70
2023/06/07 07:54:21;;;;;;;145.05;98.85;;;35.70;22.40;;;;;;4900665;29;20205;-70
2023/06/07 07:56:48;;;;;;;7.13;5.82;;;35.50;22.90;;;;;;4900633;29;20296;-70
2023/06/07 07:59:14;;;;;;;19.10;15.35;;;35.10;23.50;;;;;;4900510;29;20217;-69
2023/06/07 08:01:41;;;;;;;0.77;0.77;;;35.00;23.40;;;;;;4899394;29;20433;-69
2023/06/07 08:04:08;;;;;;;0.80;0.80;;;34.90;23.10;;;;;;4900380;29;20217;-70
2023/06/07 08:06:35;;;;;;;0.90;0.90;;;34.50;22.20;;;;;;4900319;29;20218;-69
2023/06/07 08:09:03;;;;;;;358.20;316.88;;;33.50;23.20;;;;;;4900356;29;20201;-70
2023/06/07 08:11:29;;;;;;;1.10;1.08;;;32.20;24.60;;;;;;4899893;29;20731;-69
2023/06/07 08:13:56;;;;;;;257.20;233.15;;;30.40;26.00;;;;;;4900242;29;20210;-69
2023/06/07 08:16:23;;;;;;;0.98;0.93;;;29.10;28.00;;;;;;4899952;29;20210;-69
2023/06/07 08:18:56;;;;;;;39.63;35.45;;;28.20;27.70;;;;;;4899946;29;20201;-69
2023/06/07 08:21:23;;;;;;;250.02;227.30;;;27.60;27.30;;;;;;4900047;29;20647;-68
2023/06/07 08:23:50;;;;;;;11.98;10.90;;;26.70;26.70;;;;;;4900303;29;20233;-68
2023/06/07 08:26:18;;;;;;;756.22;694.17;;;25.80;28.70;;;;;;4899930;29;20205;-68
2023/06/07 08:28:45;;;;;;;1.17;1.17;;;25.40;29.20;;;;;;4899723;29;20725;-68
2023/06/07 08:31:11;;;;;;;1.00;1.00;;;25.00;30.20;;;;;;4900007;29;20278;-68
2023/06/07 08:33:38;;;;;;;1.05;1.05;;;24.80;30.80;;;;;;4900964;29;20209;-69
2023/06/07 08:36:05;;;;;;;29.65;27.17;;;24.50;30.60;;;;;;4899531;29;20696;-69
2023/06/07 08:38:32;;;;;;;517.78;466.13;;;24.40;32.00;;;;;;4899896;29;20236;-68
2023/06/07 08:40:59;;;;;;;636.40;585.25;;;24.20;32.20;;;;;;4900427;29;20226;-68
2023/06/07 08:43:27;;;;;;;705.28;640.88;;;24.10;31.90;;;;;;4899689;29;20244;-68
2023/06/07 08:45:56;;;;;;;4.72;4.43;;;23.80;32.30;;;;;;4899602;29;20232;-68
2023/06/07 08:48:23;;;;;;;1.40;1.40;;;23.70;33.10;;;;;;4899631;29;20236;-68
2023/06/07 08:50:54;;;;;;;1.20;1.20;;;23.50;32.90;;;;;;4899523;29;20225;-68
2023/06/07 08:53:28;;;;;;;1.52;1.40;;;23.40;34.90;;;;;;4899996;29;20189;-68
2023/06/07 08:55:55;;;;;;;2.05;1.25;;;23.30;34.50;;;;;;4899623;29;20224;-68
2023/06/07 08:58:24;;;;;;;1.35;1.35;;;23.40;35.50;;;;;;4899464;29;20206;-68
2023/06/07 09:00:53;;;;;;;1.35;1.35;;;23.40;34.90;;;;;;4899451;29;20297;-68
2023/06/07 09:03:20;;;;;;;1.38;1.27;;;23.50;36.00;;;;;;4899457;29;20218;-69
2023/06/07 09:05:47;;;;;;;2.05;1.88;;;23.60;34.60;;;;;;4899513;29;20209;-69
2023/06/07 09:08:14;;;;;;;1.30;1.30;;;23.60;34.40;;;;;;4899486;29;20229;-69
2023/06/07 09:10:42;;;;;;;1.52;1.42;;;23.50;35.00;;;;;;4898993;29;20721;-69
2023/06/07 09:13:09;;;;;;;1.33;1.33;;;23.60;35.20;;;;;;4900194;29;20206;-69
2023/06/07 09:15:37;;;;;;;1.40;1.35;;;23.60;34.70;;;;;;4899527;29;20708;-69
2023/06/07 09:18:05;;;;;;;1.80;1.70;;;23.50;31.90;;;;;;4899716;29;20189;-69
2023/06/07 09:20:33;;;;;;;1.52;1.52;;;23.30;32.80;;;;;;4899272;29;20229;-68
2023/06/07 09:23:01;;;;;;;1.83;1.73;;;22.90;34.00;;;;;;4899266;29;20209;-68
2023/06/07 09:25:28;;;;;;;1.50;1.50;;;22.80;35.00;;;;;;4899048;29;20208;-69
2023/06/07 09:27:55;;;;;;;1.45;1.45;;;22.80;34.40;;;;;;4898816;29;20233;-68
2023/06/07 09:30:22;;;;;;;1.33;1.33;;;22.90;35.60;;;;;;4899064;29;20225;-69
2023/06/07 09:32:49;;;;;;;1.52;1.42;;;23.00;35.80;;;;;;4899017;29;20578;-69
2023/06/07 09:35:19;;;;;;;1.50;1.50;;;23.00;35.40;;;;;;4899097;29;20205;-69
2023/06/07 09:37:47;;;;;;;1.67;1.58;;;23.10;35.90;;;;;;4899002;29;20606;-67
2023/06/07 09:40:16;;;;;;;1.23;1.23;;;23.30;35.50;;;;;;4898873;29;20594;-68
2023/06/07 09:42:44;;;;;;;1.70;1.60;;;23.30;34.80;;;;;;4899084;29;20584;-68
2023/06/07 09:45:15;;;;;;;1.63;1.63;;;23.40;33.20;;;;;;4898624;29;20241;-68
2023/06/07 09:47:42;;;;;;;1.40;1.40;;;23.10;32.50;;;;;;4898675;29;20589;-67
2023/06/07 09:50:11;;;;;;;1.60;1.60;;;23.00;33.30;;;;;;4898694;29;20709;-68
2023/06/07 09:52:39;;;;;;;1.60;1.50;;;23.00;33.80;;;;;;4898799;29;20265;-68
2023/06/07 09:55:07;;;;;;;51.75;47.92;;;23.00;34.60;;;;;;4898368;29;20708;-67
2023/06/07 09:57:35;;;;;;;2.00;1.90;;;23.20;33.40;;;;;;4898457;29;20692;-68
2023/06/07 10:00:14;;;;;;;63.72;59.20;;;23.20;33.80;;;;;;4898533;29;20226;-69
2023/06/07 10:02:42;;;;;;;2.75;2.33;;;23.10;33.60;;;;;;4899268;29;20257;-69
2023/06/07 10:05:09;;;;;;;508.35;456.05;;;23.20;33.90;;;;;;4898531;29;20202;-70
2023/06/07 10:07:41;;;;;;;459.50;421.55;;;23.30;33.50;;;;;;4898454;29;20225;-69
2023/06/07 10:10:10;;;;;;;147.85;136.57;;;23.20;32.50;;;;;;4898228;29;20230;-69
2023/06/07 10:12:40;;;;;;;3.15;2.70;;;23.00;31.80;;;;;;4898525;29;20206;-69
2023/06/07 10:15:09;;;;;;;384.45;354.08;;;23.00;33.70;;;;;;4898419;29;20194;-69
2023/06/07 10:17:45;;;;;;;2.75;2.70;;;23.00;33.40;;;;;;4898722;29;20295;-69
2023/06/07 10:20:16;;;;;;;3.08;2.88;;;23.10;34.00;;;;;;4898320;29;20267;-69
2023/06/07 10:22:46;;;;;;;44.45;41.58;;;23.10;34.60;;;;;;4898737;29;20193;-69
2023/06/07 10:25:17;;;;;;;1.73;1.63;;;23.20;34.70;;;;;;4900069;29;20201;-69
2023/06/07 10:27:52;;;;;;;3.30;3.17;;;23.20;34.70;;;;;;4898414;29;20210;-70
2023/06/07 10:30:22;;;;;;;1.70;1.60;;;23.40;34.90;;;;;;4899610;29;20232;-71
2023/06/07 10:32:52;;;;;;;328.35;302.60;;;23.50;35.50;;;;;;4899038;29;20285;-71
2023/06/07 10:35:20;;;;;;;180.88;167.27;;;23.60;35.10;;;;;;4898790;29;20297;-71
2023/06/07 10:37:53;;;;;;;2.10;1.85;;;23.70;33.50;;;;;;4898518;29;20208;-72
2023/06/07 10:40:21;;;;;;;1.98;1.88;;;23.60;35.80;;;;;;4901994;29;20320;-73
2023/06/07 10:42:48;;;;;;;457.58;410.65;;;23.50;36.90;;;;;;4904444;29;20297;-71
2023/06/07 10:45:19;;;;;;;1.83;1.73;;;23.50;31.90;;;;;;4901888;29;20568;-71
2023/06/07 10:47:47;;;;;;;1.50;1.50;;;23.50;32.20;;;;;;4902004;29;20241;-71
2023/06/07 10:50:47;;;;;;;1.80;1.70;;;23.70;33.10;;;;;;4901853;29;20256;-71
2023/06/07 10:53:15;;;;;;;1.90;1.80;;;23.90;32.50;;;;;;4896082;29;20261;-71
2023/06/07 10:55:42;;;;;;;77.30;72.28;;;24.10;31.50;;;;;;4901817;29;20577;-69
2023/06/07 10:58:29;;;;;;;115.80;106.43;;;24.40;31.40;;;;;;4901547;29;20201;-69
2023/06/07 11:00:57;;;;;;;2.08;1.98;;;24.60;30.20;;;;;;4901812;29;20315;-68
2023/06/07 11:03:43;;;;;;;99.03;70.25;;;24.90;30.80;;;;;;4901846;29;20236;-70
2023/06/07 11:06:10;;;;;;;1.95;1.85;;;25.00;29.90;;;;;;4901729;29;20193;-70
2023/06/07 11:08:39;;;;;;;976.45;878.17;;;25.10;30.60;;;;;;4900419;29;20971;-69
2023/06/07 11:11:38;;;;;;;673.47;605.78;;;25.20;31.10;;;;;;4900133;29;20446;-70
2023/06/07 11:14:13;;;;;;;1.60;1.60;;;25.30;30.60;;;;;;4885783;29;20426;-70
2023/06/07 11:16:40;;;;;;;1.92;1.83;;;25.40;29.70;;;;;;4901361;29;20236;-70
2023/06/07 11:19:11;;;;;;;2.25;2.15;;;25.20;29.10;;;;;;4901497;29;20261;-70
2023/06/07 11:22:06;;;;;;;2.00;2.00;;;25.00;28.80;;;;;;4901163;29;20463;-70
2023/06/07 11:24:36;;;;;;;2.05;1.90;;;25.00;31.30;;;;;;4901254;29;20310;-71
2023/06/07 11:27:03;;;;;;;2.25;2.15;;;25.00;30.50;;;;;;4901218;29;20616;-74
2023/06/07 11:29:31;;;;;;;1.88;1.60;;;25.00;31.00;;;;;;4901132;29;20312;-70
2023/06/07 11:31:59;;;;;;;2.80;1.90;;;25.00;30.00;;;;;;4900991;29;20209;-70
2023/06/07 11:34:27;;;;;;;1.73;1.63;;;25.00;29.90;;;;;;4900558;29;20573;-70
2023/06/07 11:37:10;;;;;;;2.20;2.10;;;25.00;30.80;;;;;;4900989;29;20240;-70
2023/06/07 11:39:38;;;;;;;2.20;2.10;;;25.20;31.20;;;;;;4900752;29;20229;-70
2023/06/07 11:42:06;;;;;;;1.80;1.70;;;25.20;30.20;;;;;;4900824;29;20201;-70
2023/06/07 11:44:34;;;;;;;1.73;1.73;;;25.30;30.10;;;;;;4900946;29;20257;-70
2023/06/07 11:47:05;;;;;;;3.60;2.53;;;25.40;29.50;;;;;;4900783;29;20199;-70
2023/06/07 11:49:32;;;;;;;2.15;2.05;;;25.40;29.30;;;;;;4900401;29;20604;-70
2023/06/07 11:52:00;;;;;;;2.22;2.13;;;25.30;30.00;;;;;;4900370;29;20696;-72
2023/06/07 11:54:27;;;;;;;1.90;1.80;;;25.30;30.40;;;;;;4900875;29;20619;-72
2023/06/07 11:56:55;;;;;;;1.85;1.75;;;25.40;30.20;;;;;;4900747;29;20269;-72
2023/06/07 11:59:23;;;;;;;2.00;1.90;;;25.50;30.10;;;;;;4900590;29;20220;-70
2023/06/07 12:01:52;;;;;;;2.30;2.20;;;25.60;29.70;;;;;;4900288;29;20209;-72
2023/06/07 12:04:20;;;;;;;2.25;2.15;;;25.70;30.20;;;;;;4900660;29;20210;-72
2023/06/07 12:06:48;;;;;;;2.10;2.00;;;25.70;29.70;;;;;;4901245;29;20202;-71
2023/06/07 12:09:16;;;;;;;2.13;2.03;;;25.50;29.10;;;;;;4900729;29;20239;-71
2023/06/07 12:11:43;;;;;;;1.77;1.77;;;25.40;29.80;;;;;;4900858;29;20285;-71
2023/06/07 12:14:11;;;;;;;2.03;1.92;;;25.40;29.80;;;;;;4901236;29;20212;-71
2023/06/07 12:16:39;;;;;;;2.08;1.98;;;25.10;29.70;;;;;;4900551;29;20233;-70
2023/06/07 12:19:06;;;;;;;1.92;1.83;;;25.00;30.70;;;;;;4900102;29;20206;-70
2023/06/07 12:21:33;;;;;;;1.75;1.65;;;25.00;31.00;;;;;;4900016;29;20237;-70
2023/06/07 12:24:01;;;;;;;2.55;2.45;;;24.90;30.50;;;;;;4899988;29;20209;-71
2023/06/07 12:26:28;;;;;;;2.15;2.05;;;24.70;30.40;;;;;;4900077;29;20232;-70
2023/06/07 12:28:55;;;;;;;1.75;1.67;;;24.50;30.60;;;;;;4899567;29;20638;-71
2023/06/07 12:31:24;;;;;;;4.05;2.05;;;24.50;31.40;;;;;;4899615;29;20709;-71
2023/06/07 12:33:56;;;;;;;1.55;1.55;;;24.60;32.30;;;;;;4900394;29;20209;-71
2023/06/07 12:36:23;;;;;;;1.63;1.63;;;24.80;31.90;;;;;;4899905;29;20229;-71
2023/06/07 12:38:49;;;;;;;1.67;1.67;;;24.90;32.30;;;;;;4899824;29;20209;-71
2023/06/07 12:41:16;;;;;;;1.73;1.65;;;25.10;32.80;;;;;;4899712;29;20236;-71
2023/06/07 12:43:46;;;;;;;1.63;1.63;;;25.30;31.70;;;;;;4899761;29;20205;-71
2023/06/07 12:46:13;;;;;;;1.73;1.73;;;25.40;32.50;;;;;;4899937;29;20240;-71
2023/06/07 12:48:41;;;;;;;1.40;1.40;;;25.40;32.70;;;;;;4899334;29;20618;-71
2023/06/07 12:51:09;;;;;;;1.55;1.55;;;25.50;32.60;;;;;;4899580;29;20230;-71
2023/06/07 12:53:36;;;;;;;2.08;1.85;;;25.60;32.70;;;;;;4899597;29;20209;-71
2023/06/07 12:56:03;;;;;;;1.40;1.40;;;25.70;32.30;;;;;;4899245;29;20209;-71
2023/06/07 12:58:30;;;;;;;1.83;1.83;;;25.90;32.50;;;;;;4899513;29;20201;-71
2023/06/07 13:00:56;;;;;;;1.73;1.67;;;26.10;32.40;;;;;;4899094;29;20733;-70
2023/06/07 13:03:23;;;;;;;1.70;1.60;;;26.30;32.20;;;;;;4898829;29;20210;-70
2023/06/07 13:05:51;;;;;;;1.70;1.70;;;26.50;32.90;;;;;;4899497;29;20209;-69
2023/06/07 13:08:19;;;;;;;1.48;1.48;;;26.50;32.90;;;;;;4899766;29;20638;-70
2023/06/07 13:10:46;;;;;;;1.52;1.48;;;26.60;32.00;;;;;;4898871;29;20268;-69
2023/06/07 13:13:13;;;;;;;1.83;1.73;;;26.70;31.70;;;;;;4899014;29;20206;-69
2023/06/07 13:15:40;;;;;;;1.80;1.75;;;26.70;31.20;;;;;;4899140;29;20206;-69
2023/06/07 13:18:07;;;;;;;1.50;1.50;;;26.70;31.40;;;;;;4899060;29;20202;-68
2023/06/07 13:20:34;;;;;;;2.50;1.80;;;26.70;31.50;;;;;;4899464;29;20252;-68
2023/06/07 13:23:02;;;;;;;13.63;12.63;;;26.70;32.20;;;;;;4899770;29;20336;-69
2023/06/07 13:25:29;;;;;;;1.80;1.70;;;26.60;33.40;;;;;;4898930;29;20296;-70
2023/06/07 13:27:56;;;;;;;1.60;1.50;;;26.50;43.50;;;;;;4898940;29;20209;-69
2023/06/07 13:30:22;;;;;;;2.00;1.90;;;26.30;40.80;;;;;;4898878;29;20231;-69
2023/06/07 13:32:51;;;;;;;1.95;1.85;;;26.20;38.30;;;;;;4898605;29;20606;-69
2023/06/07 13:35:17;;;;;;;1.98;1.88;;;25.90;39.90;;;;;;4898853;29;20209;-69
2023/06/07 13:37:44;;;;;;;2.70;2.50;;;25.60;35.60;;;;;;4898491;29;20700;-69
2023/06/07 13:40:13;;;;;;;2.50;2.30;;;25.20;35.40;;;;;;4898744;29;20229;-69
2023/06/07 13:42:39;;;;;;;11.60;7.15;;;24.80;35.60;;;;;;4898656;29;20209;-69
2023/06/07 13:45:08;;;;;;;3.10;2.00;;;24.70;35.80;;;;;;4898563;29;20210;-68
2023/06/07 13:47:35;;;;;;;2.97;2.78;;;24.50;35.90;;;;;;4899379;29;20232;-68
2023/06/07 13:50:02;;;;;;;2.65;2.45;;;24.30;35.40;;;;;;4898342;29;20635;-68
2023/06/07 13:52:29;;;;;;;2.47;2.38;;;24.10;36.20;;;;;;4898505;29;20205;-68
2023/06/07 13:54:56;;;;;;;2.00;1.90;;;24.10;37.20;;;;;;4898054;29;20257;-68
2023/06/07 13:57:25;;;;;;;2.00;1.90;;;24.00;38.10;;;;;;4898016;29;20213;-68
2023/06/07 13:59:52;;;;;;;1.77;1.67;;;24.00;37.60;;;;;;4898031;29;20229;-68
2023/06/07 14:02:19;;;;;;;2.20;2.00;;;24.00;38.20;;;;;;4898250;29;20566;-68
2023/06/07 14:04:48;;;;;;;1.92;1.83;;;24.00;38.40;;;;;;4898017;29;20217;-68
2023/06/07 14:07:15;;;;;;;36.35;18.17;;;24.00;39.50;;;;;;4897866;29;20688;-68
2023/06/07 14:09:41;;;;;;;1.77;1.70;;;24.10;37.80;;;;;;4897761;29;20646;-68
2023/06/07 14:12:11;;;;;;;1.70;1.70;;;24.20;37.60;;;;;;4898359;29;20209;-68
2023/06/07 14:14:39;;;;;;;1.70;1.70;;;24.30;37.50;;;;;;4898216;29;20202;-69
2023/06/07 14:17:06;;;;;;;1.92;1.83;;;24.30;37.00;;;;;;4901781;29;20229;-69
2023/06/07 14:19:33;;;;;;;1.70;1.65;;;24.20;35.80;;;;;;4902190;29;20225;-69
2023/06/07 14:22:00;;;;;;;1.83;1.73;;;24.20;36.80;;;;;;4902270;29;20256;-69
2023/06/07 14:24:27;;;;;;;2.35;2.25;;;24.20;37.20;;;;;;4902298;29;20395;-69
2023/06/07 14:26:54;;;;;;;2.03;1.92;;;24.20;36.60;;;;;;4902416;29;20205;-69
2023/06/07 14:29:21;;;;;;;1.83;1.58;;;24.30;37.00;;;;;;4902077;29;20213;-69
2023/06/07 14:31:49;;;;;;;1.92;1.83;;;24.40;37.00;;;;;;4901742;29;20270;-69
2023/06/07 14:34:16;;;;;;;1.92;1.90;;;24.40;36.80;;;;;;4902049;29;20244;-67
2023/06/07 14:36:44;;;;;;;2.13;2.05;;;24.50;37.70;;;;;;4901989;29;20206;-67
2023/06/07 14:39:11;;;;;;;2.05;1.95;;;24.60;37.10;;;;;;4901493;29;20205;-67
2023/06/07 14:41:38;;;;;;;1.70;1.63;;;24.80;37.90;;;;;;4901991;29;20212;-68
2023/06/07 14:44:05;;;;;;;2.45;2.35;;;25.00;37.40;;;;;;4901861;29;20217;-69
2023/06/07 14:46:32;;;;;;;2.70;2.60;;;24.90;36.20;;;;;;4901937;29;20213;-68
2023/06/07 14:49:00;;;;;;;2.88;2.63;;;24.90;36.90;;;;;;4902329;29;20218;-68
2023/06/07 14:51:30;;;;;;;2.45;2.25;;;24.90;36.10;;;;;;4902365;29;20596;-68
2023/06/07 14:53:56;;;;;;;93.47;83.15;;;24.70;36.30;;;;;;4902048;29;20212;-68
2023/06/07 14:56:23;;;;;;;2.65;2.45;;;24.60;36.50;;;;;;4901718;29;20681;-69
2023/06/07 14:58:50;;;;;;;2.72;2.33;;;24.50;36.10;;;;;;4901906;29;20201;-68
2023/06/07 15:01:17;;;;;;;2.20;2.10;;;24.50;37.20;;;;;;4902476;29;20237;-68
2023/06/07 15:03:44;;;;;;;1.80;1.70;;;24.60;38.40;;;;;;4901919;29;20305;-68
2023/06/07 15:06:12;;;;;;;2.35;2.25;;;24.80;37.30;;;;;;4901822;29;20288;-68
2023/06/07 15:08:38;;;;;;;2.83;2.30;;;24.90;36.50;;;;;;4901933;29;20253;-68
2023/06/07 15:11:05;;;;;;;2.65;2.50;;;25.00;37.00;;;;;;4901976;29;20237;-68
2023/06/07 15:13:32;;;;;;;4.78;2.72;;;25.10;36.80;;;;;;4902547;29;20201;-68
2023/06/07 15:15:59;;;;;;;3.03;2.55;;;24.90;35.40;;;;;;4901742;29;20206;-68
2023/06/07 15:18:26;;;;;;;2.28;2.17;;;24.90;35.10;;;;;;4901696;29;20677;-68
2023/06/07 15:20:53;;;;;;;4.15;2.80;;;24.70;35.70;;;;;;4902246;29;20229;-69
2023/06/07 15:23:21;;;;;;;5.85;2.60;;;24.50;35.90;;;;;;4902034;29;20205;-69
2023/06/07 15:25:48;;;;;;;3.17;2.63;;;24.30;36.00;;;;;;4901877;29;20205;-69
2023/06/07 15:28:14;;;;;;;2.42;2.28;;;24.10;37.20;;;;;;4900557;29;20670;-69
2023/06/07 15:30:41;;;;;;;2.38;2.28;;;24.00;36.80;;;;;;4901232;29;20311;-68
2023/06/07 15:33:08;;;;;;;2.47;2.38;;;23.90;37.90;;;;;;4901256;29;20205;-68
2023/06/07 15:35:34;;;;;;;2.88;2.67;;;23.80;37.80;;;;;;4901524;29;20190;-68
2023/06/07 15:38:01;;;;;;;3.05;2.70;;;23.80;37.90;;;;;;4901608;29;20209;-68
2023/06/07 15:40:29;;;;;;;7.53;2.30;;;23.70;37.40;;;;;;4901548;29;20226;-69
2023/06/07 15:42:56;;;;;;;2.97;2.63;;;23.60;37.10;;;;;;4900850;29;20666;-68
2023/06/07 15:45:23;;;;;;;2.90;2.63;;;23.50;37.20;;;;;;4900783;29;20216;-69
2023/06/07 15:47:59;;;;;;;2.60;2.50;;;23.30;38.50;;;;;;4900870;29;20696;-69
2023/06/07 15:50:26;;;;;;;2.67;2.53;;;23.30;38.70;;;;;;4900875;29;20233;-70
2023/06/07 15:52:53;;;;;;;1.92;1.85;;;23.20;38.40;;;;;;4900905;29;20216;-67
2023/06/07 15:55:22;;;;;;;2.33;2.13;;;23.10;38.20;;;;;;4900938;29;20618;-69
2023/06/07 15:57:50;;;;;;;2.50;2.40;;;23.10;39.30;;;;;;4901161;29;20209;-69
2023/06/07 16:00:18;;;;;;;4.35;2.72;;;23.00;39.70;;;;;;4900811;29;20221;-69
2023/06/07 16:02:44;;;;;;;2.58;2.38;;;23.00;39.70;;;;;;4900560;29;20206;-68
2023/06/07 16:05:11;;;;;;;4.25;2.90;;;22.90;40.00;;;;;;4900925;29;20213;-68
2023/06/07 16:07:38;;;;;;;2.60;2.47;;;22.90;39.70;;;;;;4900321;29;20682;-68
2023/06/07 16:10:05;;;;;;;3.85;2.60;;;22.80;40.30;;;;;;4900057;29;20237;-69
2023/06/07 16:12:32;;;;;;;2.53;2.35;;;22.80;40.20;;;;;;4900225;29;20677;-68
2023/06/07 16:15:00;;;;;;;4.18;2.67;;;22.70;40.60;;;;;;4900396;29;20201;-69
2023/06/07 16:17:27;;;;;;;5.88;2.58;;;22.70;41.10;;;;;;4900406;29;20213;-69
2023/06/07 16:19:54;;;;;;;3.90;2.70;;;22.70;40.30;;;;;;4900576;29;20221;-70
2023/06/07 16:22:21;;;;;;;2.42;2.28;;;22.70;40.40;;;;;;4900376;29;20576;-69
2023/06/07 16:24:47;;;;;;;2.90;2.70;;;22.70;40.30;;;;;;4901139;29;20301;-69
2023/06/07 16:27:14;;;;;;;2.55;2.45;;;22.60;40.50;;;;;;4900778;29;20568;-69
2023/06/07 16:29:41;;;;;;;2.40;2.30;;;22.70;40.60;;;;;;4901273;29;20229;-68
2023/06/07 16:32:09;;;;;;;2.42;2.33;;;22.70;40.90;;;;;;4900550;29;20209;-68
2023/06/07 16:34:36;;;;;;;2.35;2.25;;;22.70;40.80;;;;;;4900569;29;20232;-68
2023/06/07 16:37:03;;;;;;;3.03;2.40;;;22.70;41.00;;;;;;4900881;29;20206;-68
2023/06/07 16:39:30;;;;;;;2.15;2.05;;;22.70;40.80;;;;;;4899704;29;20205;-69
2023/06/07 16:41:57;;;;;;;2.05;1.95;;;22.70;39.60;;;;;;4901223;29;20207;-69
2023/06/07 16:44:23;;;;;;;2.00;1.90;;;22.70;39.70;;;;;;4905257;29;20213;-68
2023/06/07 16:46:52;;;;;;;2.17;2.08;;;22.70;40.30;;;;;;4905897;29;20210;-68
2023/06/07 16:49:20;;;;;;;2.20;2.10;;;22.70;40.40;;;;;;4900500;29;20228;-69
2023/06/07 16:51:47;;;;;;;2.42;2.33;;;22.70;40.30;;;;;;4900099;29;20678;-69
2023/06/07 16:54:14;;;;;;;2.58;2.38;;;22.70;40.50;;;;;;4899950;29;20205;-68
2023/06/07 16:56:41;;;;;;;2.50;2.40;;;22.70;40.00;;;;;;4899819;29;20205;-68
2023/06/07 16:59:08;;;;;;;2.53;2.38;;;22.60;40.00;;;;;;4899453;29;20216;-68
2023/06/07 17:01:35;;;;;;;3.70;3.40;;;22.60;40.60;;;;;;4899251;29;20221;-69
2023/06/07 17:04:01;;;;;;;5.70;2.45;;;22.60;39.90;;;;;;4899347;29;20205;-69
2023/06/07 17:06:30;;;;;;;2.80;2.60;;;22.60;40.00;;;;;;4899229;29;20210;-69
2023/06/07 17:08:56;;;;;;;2.53;2.40;;;22.60;41.10;;;;;;4901534;29;20209;-70
2023/06/07 17:11:23;;;;;;;2.67;2.58;;;22.50;41.30;;;;;;4921107;23;20237;-69
2023/06/07 17:13:50;;;;;;;2.53;2.35;;;22.50;42.00;;;;;;4899227;29;20210;-70
2023/06/07 17:16:17;;;;;;;3.75;2.75;;;22.50;42.00;;;;;;4899245;29;20208;-70
2023/06/07 17:18:43;;;;;;;2.67;2.53;;;22.40;42.10;;;;;;4899105;29;20205;-70
2023/06/07 17:21:11;;;;;;;2.22;2.13;;;22.50;42.90;;;;;;4899198;29;20239;-69
2023/06/07 17:23:39;;;;;;;2.20;2.10;;;22.40;43.80;;;;;;4898856;29;20575;-67
2023/06/07 17:26:06;;;;;;;4.88;4.15;;;22.50;45.10;;;;;;4899081;29;20205;-71
2023/06/07 17:28:33;;;;;;;2.50;2.30;;;22.50;47.80;;;;;;4898882;29;20209;-68
2023/06/07 17:31:00;;;;;;;2.20;2.10;;;22.50;51.20;;;;;;4898629;29;20697;-68
2023/06/07 17:33:27;;;;;;;2.55;2.33;;;21.90;42.50;;;;;;4898967;29;20206;-69
2023/06/07 17:35:54;;;;;;;2.70;2.53;;;22.50;41.50;;;;;;4898840;29;20213;-68
2023/06/07 17:38:21;;;;;;;2.35;2.25;;;22.50;40.10;;;;;;4898868;29;20205;-68
2023/06/07 17:40:49;;;;;;;2.95;2.25;;;22.40;39.20;;;;;;4898789;29;20232;-69
2023/06/07 17:43:15;;;;;;;2.70;2.50;;;22.30;39.50;;;;;;4898815;29;20301;-69
2023/06/07 17:45:42;;;;;;;2.58;2.30;;;22.30;39.40;;;;;;4898837;29;20213;-69
2023/06/07 17:48:09;;;;;;;3.42;2.70;;;22.20;39.00;;;;;;4898778;29;20232;-69
2023/06/07 17:50:35;;;;;;;2.45;2.35;;;22.20;39.00;;;;;;4898470;29;20237;-69
2023/06/07 17:53:02;;;;;;;2.78;2.67;;;22.10;38.90;;;;;;4898793;29;20209;-69
2023/06/07 17:55:29;;;;;;;6.65;3.35;;;22.00;38.70;;;;;;4898741;29;20213;-69
2023/06/07 17:57:58;;;;;;;2.80;2.63;;;21.90;38.80;;;;;;4898670;29;20252;-69
2023/06/07 18:00:25;;;;;;;82.93;52.42;;;21.90;39.00;;;;;;4898439;29;20205;-68